Time;durP1;ratioP1;P1;durP2;ratioP2;P2;SDS_P1;SDS_P2;PMS_P1;PMS_P2;Temp;Humidity;BMP_temperature;BMP_pressure;BME280_temperature;BME280_humidity;BME280_pressure;Samples;Min_cycle;Max_cycle;Signal;HPM_P1;HPM_P2
2022/10/26 03:37:45;;;;;;;;;;;;;;;13.47;100.00;99390.38;5000950;28;20063;-85
2022/10/26 03:40:10;;;;;;;;;;;;;;;13.47;100.00;99391.22;5002701;28;20023;-87
2022/10/26 03:42:39;;;;;;;;;;;;;;;13.49;100.00;99404.44;5002356;28;19918;-85
2022/10/26 03:45:05;;;;;;;;;;;;;;;13.49;100.00;99399.97;5002197;28;19918;-85
2022/10/26 03:47:30;;;;;;;;;;;;;;;13.50;100.00;99400.81;5002660;28;20012;-87
2022/10/26 03:49:55;;;;;;;;;;;;;;;13.51;100.00;99395.38;5000817;28;19929;-86
2022/10/26 03:52:22;;;;;;;;;;;;;;;13.54;100.00;99395.19;5001969;28;19921;-87
2022/10/26 03:54:48;;;;;;;;;;;;;;;13.56;100.00;99392.44;5002064;28;19918;-85
2022/10/26 03:57:13;;;;;;;;;;;;;;;13.56;100.00;99406.63;5002449;28;20303;-85
2022/10/26 03:59:38;;;;;;;;;;;;;;;13.57;100.00;99407.47;5002101;28;19928;-85
2022/10/26 04:02:04;;;;;;;;;;;;;;;13.57;100.00;99403.00;5002003;28;19932;-86
2022/10/26 04:04:29;;;;;;;;;;;;;;;13.59;100.00;99416.22;4999805;28;19921;-88
2022/10/26 04:06:54;;;;;;;;;;;;;;;13.60;100.00;99408.13;4992647;28;19936;-86
2022/10/26 04:09:20;;;;;;;;;;;;;;;13.60;100.00;99408.13;5000750;28;20361;-86
2022/10/26 04:11:45;;;;;;;;;;;;;;;13.61;100.00;99404.53;5001808;28;19921;-87
2022/10/26 04:14:10;;;;;;;;;;;;;;;13.64;100.00;99403.47;5002227;28;19918;-87
2022/10/26 04:16:38;;;;;;;;;;;;;;;13.64;100.00;99419.44;5002281;28;19922;-90
2022/10/26 04:19:03;;;;;;;;;;;;;;;13.66;100.00;99422.00;5001681;28;19929;-90
2022/10/26 04:21:31;;;;;;;;;;;;;;;13.66;100.00;99420.22;4983051;28;19921;-90
2022/10/26 04:23:56;;;;;;;;;;;;;;;13.66;100.00;99428.22;5001708;28;20325;-89
2022/10/26 04:26:22;;;;;;;;;;;;;;;13.68;100.00;99431.63;4999767;28;20025;-88
2022/10/26 04:28:47;;;;;;;;;;;;;;;13.67;100.00;99429.06;5001895;28;19969;-88
2022/10/26 04:31:15;;;;;;;;;;;;;;;13.65;100.00;99430.97;4993127;28;19921;-89
2022/10/26 04:33:40;;;;;;;;;;;;;;;12.35;100.00;99441.13;4984310;28;19925;-89
2022/10/26 04:36:05;;;;;;;;;;;;;;;11.13;100.00;99436.91;5000670;28;19925;-88
2022/10/26 04:38:31;;;;;;;;;;;;;;;10.45;100.00;99450.84;5001941;28;19918;-88
2022/10/26 04:40:56;;;;;;;;;;;;;;;10.08;100.00;99451.66;4983915;28;20004;-88
2022/10/26 04:43:21;;;;;;;;;;;;;;;9.79;100.00;99453.84;4992645;28;19941;-87
2022/10/26 04:45:46;;;;;;;;;;;;;;;9.61;100.00;99463.47;5002375;28;19924;-88
2022/10/26 07:52:52;;;;;;;;;;;;;;;5.52;100.00;99695.97;5339200;23;19940;-85
2022/10/26 07:55:18;;;;;;;;;;;;;;;5.51;100.00;99701.28;5021448;28;20372;-86
2022/10/26 07:57:43;;;;;;;;;;;;;;;5.49;100.00;99703.94;5004736;28;19944;-86
2022/10/26 08:00:17;;;;;;;;;;;;;;;5.48;100.00;99710.06;5020515;28;20382;-88
2022/10/26 08:02:42;;;;;;;;;;;;;;;5.43;100.00;99701.44;5021176;28;19972;-85
2022/10/26 08:05:08;;;;;;;;;;;;;;;5.77;100.00;99712.00;5022726;28;19914;-86
2022/10/26 08:07:38;;;;;;;;;;;;;;;5.55;100.00;99716.94;5010852;28;19921;-88
2022/10/26 08:10:04;;;;;;;;;;;;;;;6.55;100.00;99717.03;5022030;28;19924;-87
2022/10/26 08:12:29;;;;;;;;;;;;;;;7.60;100.00;99721.00;5004077;28;19917;-87
2022/10/26 08:14:55;;;;;;;;;;;;;;;6.64;100.00;99721.19;5004093;28;19921;-89
2022/10/26 08:17:21;;;;;;;;;;;;;;;9.03;100.00;99709.94;5004332;28;19936;-84
2022/10/26 08:19:47;;;;;;;;;;;;;;;12.07;100.00;99704.69;5005053;28;20019;-85
2022/10/26 08:22:12;;;;;;;;;;;;;;;10.81;100.00;99720.31;5024626;28;19964;-85
2022/10/26 08:24:37;;;;;;;;;;;;;;;9.36;100.00;99717.50;5007815;28;20291;-92
2022/10/26 08:27:03;;;;;;;;;;;;;;;10.62;100.00;99717.63;5008004;28;19936;-85
2022/10/26 08:29:28;;;;;;;;;;;;;;;11.52;100.00;99713.50;5024565;28;19917;-85
2022/10/26 08:31:53;;;;;;;;;;;;;;;10.02;100.00;99716.63;5025505;28;19925;-85
2022/10/26 08:34:18;;;;;;;;;;;;;;;9.02;100.00;99729.38;5024564;28;19917;-86
2022/10/26 08:36:44;;;;;;;;;;;;;;;8.58;100.00;99743.28;5004556;28;20007;-86
2022/10/26 08:39:09;;;;;;;;;;;;;;;8.34;100.00;99740.56;5021722;28;19921;-86
2022/10/26 08:41:41;;;;;;;;;;;;;;;8.12;100.00;99740.44;5023951;28;20291;-85
2022/10/26 08:44:41;;;;;;;;;;;;;;;7.94;100.00;99748.94;5024879;28;19921;-85
2022/10/26 08:47:13;;;;;;;;;;;;;;;7.81;100.00;99749.31;4962137;28;20480;-87
2022/10/26 08:49:42;;;;;;;;;;;;;;;7.69;100.00;99744.47;5014249;28;19948;-86
2022/10/26 08:52:10;;;;;;;;;;;;;;;7.56;100.00;99753.66;5006574;28;19963;-85
2022/10/26 08:54:41;;;;;;;;;;;;;;;7.57;100.00;99750.97;5006741;28;20124;-86
2022/10/26 08:57:12;;;;;;;;;;;;;;;7.51;100.00;99755.56;5021115;28;20398;-86
2022/10/26 08:59:42;;;;;;;;;;;;;;;7.49;100.00;99760.03;5022135;28;20005;-86
2022/10/26 09:02:15;;;;;;;;;;;;;;;7.18;100.00;99753.91;5021551;28;20028;-86
2022/10/26 09:04:41;;;;;;;;;;;;;;;6.99;100.00;99758.84;5005909;28;19921;-86
2022/10/26 09:07:06;;;;;;;;;;;;;;;7.14;100.00;99764.59;5019493;28;19921;-90
2022/10/26 09:09:31;;;;;;;;;;;;;;;7.23;100.00;99761.69;5005153;28;19925;-85
2022/10/26 09:12:05;;;;;;;;;;;;;;;7.12;100.00;99769.91;5020149;28;20011;-86
2022/10/26 09:14:49;;;;;;;;;;;;;;;7.23;100.00;99767.81;5021492;28;19928;-87
2022/10/26 09:17:27;;;;;;;;;;;;;;;7.17;100.00;99772.41;5021720;28;19928;-86
2022/10/26 09:20:00;;;;;;;;;;;;;;;7.04;100.00;99767.47;5021230;28;20019;-86
2022/10/26 09:22:31;;;;;;;;;;;;;;;7.13;100.00;99774.25;5016067;28;19921;-87
2022/10/26 09:24:59;;;;;;;;;;;;;;;7.11;100.00;99772.59;5020687;28;19922;-86
2022/10/26 09:27:29;;;;;;;;;;;;;;;7.07;100.00;99780.56;5021927;28;19921;-87
2022/10/26 09:30:03;;;;;;;;;;;;;;;7.08;100.00;99782.31;5004989;28;19928;-87
2022/10/26 09:32:40;;;;;;;;;;;;;;;7.01;100.00;99780.75;5019676;28;19925;-87
2022/10/26 09:35:25;;;;;;;;;;;;;;;7.04;100.00;99785.06;5022798;28;20455;-86
2022/10/26 09:37:57;;;;;;;;;;;;;;;7.06;100.00;99785.88;5019214;28;20351;-85
2022/10/26 09:40:33;;;;;;;;;;;;;;;7.04;100.00;99792.97;5005402;28;19971;-86
2022/10/26 09:43:24;;;;;;;;;;;;;;;7.01;100.00;99785.16;5021003;28;19921;-86
2022/10/26 09:45:50;;;;;;;;;;;;;;;6.97;100.00;99800.16;5014518;28;19925;-86
2022/10/26 09:48:21;;;;;;;;;;;;;;;6.98;100.00;99803.69;5018754;28;20012;-86
2022/10/26 09:50:47;;;;;;;;;;;;;;;8.42;100.00;99811.56;5022972;28;19921;-85
2022/10/26 09:53:12;;;;;;;;;;;;;;;8.79;100.00;99802.44;5021100;28;19929;-86
2022/10/26 09:55:40;;;;;;;;;;;;;;;7.85;100.00;99812.53;5022831;28;19924;-86
2022/10/26 09:58:11;;;;;;;;;;;;;;;7.42;100.00;99812.94;5017376;28;19928;-85
2022/10/26 10:00:37;;;;;;;;;;;;;;;7.28;100.00;99815.13;5020236;28;19921;-85
2022/10/26 10:03:16;;;;;;;;;;;;;;;7.14;100.00;99820.78;5025285;28;20015;-86
2022/10/26 10:05:41;;;;;;;;;;;;;;;7.18;100.00;99827.72;5025276;28;20483;-85
2022/10/26 10:08:14;;;;;;;;;;;;;;;7.16;100.00;99834.75;5042026;28;19917;-87
2022/10/26 10:10:51;;;;;;;;;;;;;;;6.95;100.00;99830.97;5024109;28;19952;-85
2022/10/26 10:13:20;;;;;;;;;;;;;;;6.95;100.00;99843.28;5043156;28;20445;-85
2022/10/26 10:15:53;;;;;;;;;;;;;;;6.92;100.00;99833.69;5024968;28;20023;-85
2022/10/26 10:18:22;;;;;;;;;;;;;;;6.86;100.00;99837.34;5043321;28;20011;-85
2022/10/26 10:20:55;;;;;;;;;;;;;;;6.85;100.00;99834.75;5024101;28;19979;-85
2022/10/26 10:23:26;;;;;;;;;;;;;;;6.90;100.00;99835.50;5023972;28;20394;-85
2022/10/26 10:26:05;;;;;;;;;;;;;;;6.84;100.00;99839.16;5024244;28;19954;-85
2022/10/26 10:28:32;;;;;;;;;;;;;;;6.81;100.00;99843.63;5024019;28;19917;-85
2022/10/26 10:30:59;;;;;;;;;;;;;;;6.84;100.00;99841.78;5025154;28;19920;-85
2022/10/26 10:33:33;;;;;;;;;;;;;;;6.92;100.00;99838.94;5025215;28;20007;-86
2022/10/26 10:36:01;;;;;;;;;;;;;;;6.76;100.00;99840.28;5041302;28;20303;-85
2022/10/26 10:38:27;;;;;;;;;;;;;;;6.86;100.00;99847.00;5042620;28;20015;-85
2022/10/26 10:40:57;;;;;;;;;;;;;;;6.83;100.00;99845.34;5024391;28;20020;-85
2022/10/26 10:43:23;;;;;;;;;;;;;;;6.69;100.00;99853.59;5042127;28;19928;-86
2022/10/26 10:45:52;;;;;;;;;;;;;;;6.69;100.00;99850.97;5042297;28;20268;-85
2022/10/26 10:48:22;;;;;;;;;;;;;;;6.65;100.00;99858.97;5042370;28;20016;-86
2022/10/26 10:51:02;;;;;;;;;;;;;;;6.63;100.00;99855.53;5041921;28;20012;-86
2022/10/26 10:53:30;;;;;;;;;;;;;;;6.38;100.00;99853.50;5015787;28;19933;-85
2022/10/26 10:56:14;;;;;;;;;;;;;;;6.67;100.00;99862.41;5000410;28;20400;-85
2022/10/26 10:58:47;;;;;;;;;;;;;;;6.81;100.00;99860.34;5001497;28;19914;-87
2022/10/26 11:01:14;;;;;;;;;;;;;;;6.75;100.00;99862.22;5001642;28;20431;-85
2022/10/26 11:03:46;;;;;;;;;;;;;;;6.68;100.00;99856.25;4997189;28;19964;-84
2022/10/26 11:06:15;;;;;;;;;;;;;;;6.71;100.00;99862.31;5000340;28;19926;-84
2022/10/26 11:08:54;;;;;;;;;;;;;;;6.71;100.00;99859.69;5002344;28;20020;-85
2022/10/26 11:11:42;;;;;;;;;;;;;;;6.58;100.00;99858.28;5002545;28;19964;-87
2022/10/26 11:14:08;;;;;;;;;;;;;;;6.59;100.00;99860.00;4982485;28;20354;-85
2022/10/26 11:16:38;;;;;;;;;;;;;;;6.62;100.00;99862.56;5003257;28;19922;-85
2022/10/26 11:19:15;;;;;;;;;;;;;;;6.54;100.00;99864.50;5002682;28;19949;-85
2022/10/26 11:21:42;;;;;;;;;;;;;;;6.62;100.00;99866.94;4999677;28;19924;-85
2022/10/26 11:24:14;;;;;;;;;;;;;;;6.66;100.00;99865.97;5000200;28;20411;-84
2022/10/26 11:26:42;;;;;;;;;;;;;;;6.57;100.00;99856.53;5000477;28;20351;-85
2022/10/26 11:29:18;;;;;;;;;;;;;;;6.56;100.00;99873.25;5001522;28;20376;-84
2022/10/26 11:31:50;;;;;;;;;;;;;;;6.62;100.00;99875.72;5001999;28;19985;-85
2022/10/26 11:34:23;;;;;;;;;;;;;;;6.60;100.00;99874.03;5000999;28;19918;-84
2022/10/26 11:36:54;;;;;;;;;;;;;;;6.54;100.00;99880.31;4998576;28;19921;-85
2022/10/26 11:39:25;;;;;;;;;;;;;;;6.56;100.00;99883.78;5000735;28;19918;-85
2022/10/26 11:42:10;;;;;;;;;;;;;;;6.55;100.00;99880.25;4998394;28;19922;-85
2022/10/26 11:44:43;;;;;;;;;;;;;;;6.52;100.00;99876.84;4996646;28;19922;-85
2022/10/26 11:47:14;;;;;;;;;;;;;;;6.45;100.00;99876.13;4996589;28;19932;-85
2022/10/26 11:49:43;;;;;;;;;;;;;;;6.49;100.00;99879.56;4998382;28;20292;-85
2022/10/26 11:52:16;;;;;;;;;;;;;;;6.49;100.00;99880.44;5000180;28;19925;-85
2022/10/26 11:54:50;;;;;;;;;;;;;;;6.52;100.00;99879.47;5030243;28;19925;-84
2022/10/26 11:57:16;;;;;;;;;;;;;;;6.56;100.00;99881.16;5024238;28;19927;-86
2022/10/26 12:00:00;;;;;;;;;;;;;;;6.48;100.00;99886.59;5040898;28;19929;-85
2022/10/26 12:02:25;;;;;;;;;;;;;;;6.56;100.00;99881.16;5044316;28;20360;-86
2022/10/26 12:04:54;;;;;;;;;;;;;;;6.51;100.00;99877.75;5046296;28;19970;-85
2022/10/26 12:07:23;;;;;;;;;;;;;;;6.47;100.00;99876.97;5038745;28;20368;-85
2022/10/26 12:09:49;;;;;;;;;;;;;;;6.38;100.00;99882.44;5024997;28;20335;-86
2022/10/26 12:12:14;;;;;;;;;;;;;;;6.55;100.00;99868.88;5043492;28;19921;-86
2022/10/26 12:14:39;;;;;;;;;;;;;;;6.56;100.00;99881.16;5025817;28;19925;-85
2022/10/26 12:17:07;;;;;;;;;;;;;;;6.49;100.00;99884.81;5027434;28;19917;-86
2022/10/26 12:19:56;;;;;;;;;;;;;;;6.44;100.00;99884.94;5045219;28;19921;-85
2022/10/26 12:22:28;;;;;;;;;;;;;;;6.45;100.00;99898.97;4998559;28;19963;-82
2022/10/26 12:25:12;;;;;;;;;;;;;;;6.45;100.00;99904.25;5042157;28;19921;-85
2022/10/26 12:27:37;;;;;;;;;;;;;;;6.38;100.00;99894.75;5026396;28;19960;-84
2022/10/26 12:30:14;;;;;;;;;;;;;;;6.34;100.00;99896.59;5042809;28;20414;-85
2022/10/26 12:32:40;;;;;;;;;;;;;;;6.45;100.00;99893.72;5042220;28;19925;-85
2022/10/26 12:35:23;;;;;;;;;;;;;;;6.45;100.00;99904.25;5044717;28;19917;-85
2022/10/26 12:37:49;;;;;;;;;;;;;;;6.37;100.00;99904.41;5026265;28;19924;-85
2022/10/26 12:40:29;;;;;;;;;;;;;;;6.35;100.00;99893.94;5025523;28;19925;-86
2022/10/26 12:42:55;;;;;;;;;;;;;;;6.34;100.00;99901.84;5026657;28;19917;-85
2022/10/26 12:45:20;;;;;;;;;;;;;;;6.24;100.00;99900.31;5044269;28;20427;-85
2022/10/26 12:47:59;;;;;;;;;;;;;;;6.27;100.00;99898.50;5044877;28;19933;-85
2022/10/26 12:50:24;;;;;;;;;;;;;;;6.28;100.00;99902.84;5044830;28;20330;-85
2022/10/26 12:52:50;;;;;;;;;;;;;;;6.34;100.00;99902.72;5039621;28;19925;-85
2022/10/26 12:55:34;;;;;;;;;;;;;;;6.23;100.00;99907.38;5041575;28;19931;-85
2022/10/26 12:57:59;;;;;;;;;;;;;;;6.16;100.00;99913.69;5025092;28;19928;-85
2022/10/26 13:00:25;;;;;;;;;;;;;;;6.25;100.00;99915.22;5041744;28;19925;-85
2022/10/26 13:02:59;;;;;;;;;;;;;;;6.28;100.00;99912.53;5039486;28;19927;-86
2022/10/26 13:05:39;;;;;;;;;;;;;;;6.34;100.00;99912.38;5041736;28;20012;-85
2022/10/26 13:08:12;;;;;;;;;;;;;;;6.40;100.00;99911.34;5019592;28;19925;-86
2022/10/26 13:10:40;;;;;;;;;;;;;;;6.39;100.00;99914.91;5024904;28;19927;-86
2022/10/26 13:13:06;;;;;;;;;;;;;;;6.36;100.00;99906.16;5042266;28;19960;-84
2022/10/26 13:15:38;;;;;;;;;;;;;;;6.28;100.00;99905.47;5044285;28;19913;-85
2022/10/26 13:18:08;;;;;;;;;;;;;;;6.31;100.00;99904.56;5039570;28;21020;-86
2022/10/26 13:20:35;;;;;;;;;;;;;;;6.25;100.00;99912.59;5039518;28;20003;-85
2022/10/26 13:23:01;;;;;;;;;;;;;;;6.25;100.00;99910.81;5042780;28;19924;-85
2022/10/26 13:25:28;;;;;;;;;;;;;;;6.29;100.00;99912.50;5042763;28;20011;-84
2022/10/26 13:28:03;;;;;;;;;;;;;;;6.23;100.00;99920.53;5017964;28;19960;-85
2022/10/26 13:30:31;;;;;;;;;;;;;;;6.26;100.00;99915.19;5024294;28;20473;-86
2022/10/26 13:32:57;;;;;;;;;;;;;;;6.20;100.00;99914.47;5023897;28;20292;-87
2022/10/26 13:35:23;;;;;;;;;;;;;;;6.18;100.00;99917.13;5039254;28;19925;-85
2022/10/26 13:37:51;;;;;;;;;;;;;;;6.38;100.00;99919.28;5043094;28;19927;-85
2022/10/26 13:40:17;;;;;;;;;;;;;;;6.26;100.00;99919.59;5024319;28;20011;-85
2022/10/26 13:42:48;;;;;;;;;;;;;;;6.19;100.00;99926.78;5017726;28;20019;-85
2022/10/26 13:45:19;;;;;;;;;;;;;;;6.19;100.00;99929.41;5026159;28;19918;-85
2022/10/26 13:47:48;;;;;;;;;;;;;;;6.20;100.00;99925.84;5042531;28;19917;-85
2022/10/26 13:50:18;;;;;;;;;;;;;;;6.26;100.00;99925.72;5039685;28;19982;-85
2022/10/26 13:52:45;;;;;;;;;;;;;;;6.18;100.00;99925.88;5041938;28;19971;-85
2022/10/26 13:55:20;;;;;;;;;;;;;;;6.21;100.00;99921.44;5025382;28;20019;-86
2022/10/26 13:57:59;;;;;;;;;;;;;;;6.14;100.00;99926.88;5042364;28;19917;-86
2022/10/26 14:00:24;;;;;;;;;;;;;;;6.07;100.00;99925.25;5043484;28;19939;-86
2022/10/26 14:02:49;;;;;;;;;;;;;;;6.07;100.00;99921.78;5043375;28;20015;-85
2022/10/26 14:05:16;;;;;;;;;;;;;;;6.11;100.00;99921.69;5025446;28;20380;-85
2022/10/26 14:07:46;;;;;;;;;;;;;;;6.03;100.00;99933.25;5024163;28;19920;-86
2022/10/26 14:10:30;;;;;;;;;;;;;;;6.00;100.00;99940.31;5022362;28;20373;-87
2022/10/26 14:12:56;;;;;;;;;;;;;;;6.05;100.00;99940.22;5039802;28;19921;-86
2022/10/26 14:15:24;;;;;;;;;;;;;;;6.07;100.00;99940.19;5022700;28;19929;-85
2022/10/26 14:17:50;;;;;;;;;;;;;;;6.15;100.00;99944.38;5042404;28;19921;-87
2022/10/26 14:20:19;;;;;;;;;;;;;;;6.12;100.00;99946.22;5023625;28;20033;-85
2022/10/26 14:22:56;;;;;;;;;;;;;;;6.09;100.00;99944.50;5021368;28;21457;-86
2022/10/26 14:25:23;;;;;;;;;;;;;;;6.13;100.00;99950.59;5021796;28;19921;-86
2022/10/26 14:27:49;;;;;;;;;;;;;;;6.04;100.00;99950.78;5023924;28;19921;-87
2022/10/26 14:30:21;;;;;;;;;;;;;;;6.08;100.00;99947.16;5042842;28;19963;-86
2022/10/26 14:32:46;;;;;;;;;;;;;;;6.06;100.00;99957.72;5025322;28;19924;-85
2022/10/26 14:35:12;;;;;;;;;;;;;;;6.10;100.00;99955.91;5041894;28;20387;-87
2022/10/26 14:37:46;;;;;;;;;;;;;;;6.14;100.00;99961.06;5041396;28;19971;-87
2022/10/26 14:40:23;;;;;;;;;;;;;;;6.15;100.00;99964.56;5039801;28;19947;-87
2022/10/26 14:42:49;;;;;;;;;;;;;;;6.13;100.00;99966.38;5040639;28;19951;-86
2022/10/26 14:45:24;;;;;;;;;;;;;;;6.15;100.00;99980.34;5023485;28;20000;-85
2022/10/26 14:47:50;;;;;;;;;;;;;;;6.09;100.00;99977.84;5041936;28;19916;-86
2022/10/26 14:50:23;;;;;;;;;;;;;;;6.14;100.00;99983.88;5021267;28;19937;-86
2022/10/26 14:52:55;;;;;;;;;;;;;;;6.12;100.00;99985.69;5038841;28;19967;-86
2022/10/26 14:55:20;;;;;;;;;;;;;;;6.06;100.00;99988.44;5040587;28;20376;-87
2022/10/26 14:57:47;;;;;;;;;;;;;;;6.02;100.00;99989.41;5021820;28;19939;-87
2022/10/26 15:00:17;;;;;;;;;;;;;;;6.00;100.00;99987.66;5039001;28;20800;-85
2022/10/26 15:02:46;;;;;;;;;;;;;;;5.94;100.00;99995.66;5039234;28;19968;-87
2022/10/26 15:05:20;;;;;;;;;;;;;;;6.04;100.00;99995.50;5022555;28;19978;-86
2022/10/26 15:07:45;;;;;;;;;;;;;;;6.05;100.00;99989.31;5019390;28;19924;-86
2022/10/26 15:10:29;;;;;;;;;;;;;;;6.04;100.00;99992.88;5041719;28;19944;-86
2022/10/26 15:12:54;;;;;;;;;;;;;;;5.98;100.00;100001.75;5042027;28;19987;-85
2022/10/26 15:15:21;;;;;;;;;;;;;;;5.91;100.00;100003.59;5024024;28;20280;-87
2022/10/26 15:17:52;;;;;;;;;;;;;;;5.89;100.00;100000.16;5039582;28;19925;-86
2022/10/26 15:20:19;;;;;;;;;;;;;;;5.91;100.00;99998.34;5023887;28;19927;-86
2022/10/26 15:22:52;;;;;;;;;;;;;;;5.97;100.00;99997.41;5019557;28;19925;-86
2022/10/26 15:25:21;;;;;;;;;;;;;;;5.95;100.00;100005.28;5037509;28;20308;-86
2022/10/26 15:27:47;;;;;;;;;;;;;;;5.95;100.00;100005.28;5024530;28;19940;-86
2022/10/26 15:30:21;;;;;;;;;;;;;;;5.88;100.00;100006.28;5037380;28;19929;-85
2022/10/26 15:32:49;;;;;;;;;;;;;;;5.83;100.00;100011.66;5021806;28;20004;-89
2022/10/26 15:35:20;;;;;;;;;;;;;;;5.90;100.00;100020.28;5044229;28;19924;-88
2022/10/26 15:37:49;;;;;;;;;;;;;;;5.83;100.00;100021.31;5040974;28;19927;-83
2022/10/26 15:40:14;;;;;;;;;;;;;;;5.79;100.00;100030.13;5037355;28;20004;-85
2022/10/26 15:42:40;;;;;;;;;;;;;;;5.87;100.00;100028.25;5023734;28;20038;-86
2022/10/26 15:45:14;;;;;;;;;;;;;;;5.85;100.00;100029.16;5024002;28;19921;-86
2022/10/26 15:47:46;;;;;;;;;;;;;;;5.93;100.00;100033.34;5023725;28;19917;-86
2022/10/26 15:50:12;;;;;;;;;;;;;;;5.83;100.00;100031.81;5023894;28;19923;-87
2022/10/26 15:52:37;;;;;;;;;;;;;;;5.86;100.00;100037.03;5040645;28;19917;-86
2022/10/26 15:55:02;;;;;;;;;;;;;;;5.78;100.00;100044.19;5023697;28;19921;-85
2022/10/26 15:57:28;;;;;;;;;;;;;;;5.81;100.00;100039.75;5023669;28;20422;-85
2022/10/26 15:59:53;;;;;;;;;;;;;;;5.78;100.00;100052.09;5023810;28;19917;-87
2022/10/26 16:02:18;;;;;;;;;;;;;;;5.74;100.00;100045.13;5023926;28;20280;-86
2022/10/26 16:04:44;;;;;;;;;;;;;;;5.67;100.00;100041.75;5023605;28;20364;-87
2022/10/26 16:07:13;;;;;;;;;;;;;;;5.70;100.00;100046.13;5039979;28;19921;-85
2022/10/26 16:09:39;;;;;;;;;;;;;;;5.72;100.00;100042.53;5041183;28;19917;-85
2022/10/26 16:12:05;;;;;;;;;;;;;;;5.71;100.00;100047.81;5040038;28;19917;-85
2022/10/26 16:14:30;;;;;;;;;;;;;;;5.63;100.00;100051.47;5023643;28;19920;-86
2022/10/26 16:16:58;;;;;;;;;;;;;;;5.64;100.00;100045.31;5041982;28;19916;-86
2022/10/26 16:19:23;;;;;;;;;;;;;;;5.63;100.00;100054.09;5023614;28;19936;-86
2022/10/26 16:21:52;;;;;;;;;;;;;;;5.59;100.00;100044.53;5039879;28;19917;-86
2022/10/26 16:24:26;;;;;;;;;;;;;;;5.66;100.00;100050.53;5040151;28;20454;-85
2022/10/26 16:29:46;;;;;;;;;;;;;;;5.66;100.00;100066.31;5025807;28;19921;-86
2022/10/26 16:32:11;;;;;;;;;;;;;;;5.63;100.00;100072.50;5023398;28;20132;-86
2022/10/26 16:34:37;;;;;;;;;;;;;;;5.64;100.00;100068.13;5040268;28;19964;-86
2022/10/26 16:37:05;;;;;;;;;;;;;;;5.61;100.00;100071.66;5039829;28;20409;-86
2022/10/26 16:39:30;;;;;;;;;;;;;;;5.62;100.00;100073.41;5023564;28;19920;-86
2022/10/26 16:41:56;;;;;;;;;;;;;;;5.63;100.00;100077.78;5043303;28;20418;-86
2022/10/26 16:44:22;;;;;;;;;;;;;;;5.62;100.00;100070.78;5026777;28;19920;-87
2022/10/26 16:46:47;;;;;;;;;;;;;;;5.53;100.00;100078.81;5025665;28;19928;-86
2022/10/26 16:49:12;;;;;;;;;;;;;;;5.52;100.00;100084.97;5044564;28;20352;-87
2022/10/26 16:51:38;;;;;;;;;;;;;;;5.53;100.00;100089.31;5042890;28;20348;-86
2022/10/26 16:54:04;;;;;;;;;;;;;;;5.44;100.00;100089.47;5044337;28;20012;-86
2022/10/26 16:56:31;;;;;;;;;;;;;;;5.44;100.00;100089.47;5026502;28;19949;-85
2022/10/26 16:58:57;;;;;;;;;;;;;;;5.49;100.00;100084.16;5026907;28;19917;-87
2022/10/26 17:01:22;;;;;;;;;;;;;;;5.69;100.00;100089.91;5044983;28;19917;-86
2022/10/26 17:03:48;;;;;;;;;;;;;;;6.07;100.00;100096.25;5045033;28;20265;-87
2022/10/26 17:06:13;;;;;;;;;;;;;;;6.29;100.00;100099.34;5025463;28;19960;-86
2022/10/26 17:08:39;;;;;;;;;;;;;;;6.49;100.00;100101.56;5026082;28;19941;-86
2022/10/26 17:11:08;;;;;;;;;;;;;;;6.58;100.00;100103.13;5044051;28;19967;-87
2022/10/26 17:13:37;;;;;;;;;;;;;;;6.69;100.00;100108.19;5044726;28;19924;-86
2022/10/26 17:16:03;;;;;;;;;;;;;;;6.77;100.00;100115.91;5043434;28;19932;-86
2022/10/26 17:18:28;;;;;;;;;;;;;;;6.75;100.00;100113.31;5044244;28;20015;-86
2022/10/26 17:20:54;;;;;;;;;;;;;;;6.85;100.00;100119.25;5025199;28;20344;-86
2022/10/26 17:23:19;;;;;;;;;;;;;;;6.88;100.00;100119.16;5026360;28;19924;-85
2022/10/26 17:25:44;;;;;;;;;;;;;;;6.89;100.00;100123.53;5040854;28;19925;-88
2022/10/26 17:28:10;;;;;;;;;;;;;;;6.96;100.00;100127.75;5044224;28;19917;-86
2022/10/26 17:30:36;;;;;;;;;;;;;;;7.02;100.00;100132.00;5044079;28;19943;-86
2022/10/26 17:33:04;;;;;;;;;;;;;;;7.04;100.00;100131.09;5025885;28;20356;-86
2022/10/26 17:35:31;;;;;;;;;;;;;;;7.09;100.00;100137.13;5043911;28;19952;-86
2022/10/26 17:37:57;;;;;;;;;;;;;;;7.12;100.00;100132.69;5042474;28;19925;-86
2022/10/26 17:40:22;;;;;;;;;;;;;;;7.12;100.00;100135.34;5043523;28;19938;-86
2022/10/26 17:42:47;;;;;;;;;;;;;;;7.16;100.00;100137.84;5043793;28;19938;-85
2022/10/26 17:45:13;;;;;;;;;;;;;;;7.13;100.00;100145.81;5044144;28;19935;-86
2022/10/26 17:47:48;;;;;;;;;;;;;;;7.16;100.00;100152.78;5025658;28;19917;-87
2022/10/26 17:50:14;;;;;;;;;;;;;;;7.16;100.00;100147.50;5025625;28;19917;-87
2022/10/26 17:52:39;;;;;;;;;;;;;;;7.21;100.00;100148.28;5041578;28;19924;-87
2022/10/26 17:55:05;;;;;;;;;;;;;;;7.21;100.00;100164.09;5022124;28;19926;-87
2022/10/26 17:57:31;;;;;;;;;;;;;;;7.22;100.00;100161.41;5023429;28;19921;-87
2022/10/26 17:59:58;;;;;;;;;;;;;;;7.22;100.00;100168.47;5022363;28;19921;-87
2022/10/26 18:02:26;;;;;;;;;;;;;;;7.26;100.00;100163.09;5000108;28;20373;-86
2022/10/26 18:04:51;;;;;;;;;;;;;;;7.28;100.00;100163.91;4985163;28;20323;-86
2022/10/26 18:07:17;;;;;;;;;;;;;;;7.29;100.00;100164.75;4999954;28;19936;-86
2022/10/26 18:09:42;;;;;;;;;;;;;;;7.26;100.00;100163.09;4992676;28;20428;-88
2022/10/26 18:12:09;;;;;;;;;;;;;;;7.28;100.00;100176.22;5001313;28;19934;-87
2022/10/26 18:14:37;;;;;;;;;;;;;;;7.30;100.00;100190.22;5000134;28;19922;-86
2022/10/26 18:17:02;;;;;;;;;;;;;;;7.32;100.00;100185.78;4992588;28;19925;-88
2022/10/26 18:19:27;;;;;;;;;;;;;;;7.32;100.00;100187.56;5001349;28;20320;-89
2022/10/26 18:21:53;;;;;;;;;;;;;;;7.32;100.00;100192.84;4999488;28;19918;-88
2022/10/26 18:24:18;;;;;;;;;;;;;;;7.33;100.00;100205.97;5000753;28;19925;-90
2022/10/26 18:26:43;;;;;;;;;;;;;;;7.30;100.00;100205.19;4997918;28;19924;-86
2022/10/26 18:29:10;;;;;;;;;;;;;;;7.32;100.00;100204.25;5023373;28;19963;-90
2022/10/26 18:31:35;;;;;;;;;;;;;;;7.31;100.00;100210.44;5021385;28;19968;-87
2022/10/26 18:34:01;;;;;;;;;;;;;;;7.34;100.00;100223.56;5022811;28;20341;-88
2022/10/26 18:39:32;;;;;;;;;;;;;;;7.33;100.00;100220.94;5022964;28;20028;-87
2022/10/26 18:42:03;;;;;;;;;;;;;;;7.35;100.00;100224.41;5020946;28;20058;-88
2022/10/26 18:44:33;;;;;;;;;;;;;;;7.35;100.00;100227.91;5022905;28;20269;-86
2022/10/26 18:47:01;;;;;;;;;;;;;;;7.34;100.00;100234.09;4999712;28;19918;-88
2022/10/26 18:49:26;;;;;;;;;;;;;;;7.34;100.00;100231.47;4999451;28;19918;-88
2022/10/26 18:51:54;;;;;;;;;;;;;;;7.34;100.00;100244.63;4999291;28;19918;-87
2022/10/26 18:54:25;;;;;;;;;;;;;;;7.32;100.00;100240.28;5000289;28;20020;-88
2022/10/26 18:56:52;;;;;;;;;;;;;;;7.38;100.00;100245.44;5001119;28;20012;-87
2022/10/26 18:59:18;;;;;;;;;;;;;;;7.38;100.00;100245.44;5001137;28;19918;-90
2022/10/26 19:01:45;;;;;;;;;;;;;;;7.33;100.00;100248.16;5000505;28;19917;-86
2022/10/26 19:04:11;;;;;;;;;;;;;;;7.34;100.00;100246.38;4999842;28;19922;-88
2022/10/26 19:06:50;;;;;;;;;;;;;;;;;;;;;
2022/10/26 19:09:24;;;;;;;;;;;;;;;7.38;100.00;100255.97;5000579;28;19917;-87
2022/10/26 19:11:52;;;;;;;;;;;;;;;7.39;100.00;100258.56;5009138;28;19921;-88
2022/10/26 19:14:20;;;;;;;;;;;;;;;7.38;100.00;100261.25;5021225;28;19917;-88
2022/10/26 19:16:46;;;;;;;;;;;;;;;7.35;100.00;100267.44;5020760;28;20288;-91
2022/10/26 19:19:36;;;;;;;;;;;;;;;7.37;100.00;100260.38;5021922;28;19922;-90
2022/10/26 19:22:00;;;;;;;;;;;;;;;7.43;100.00;100265.50;5020690;28;19921;-88
2022/10/26 19:24:32;;;;;;;;;;;;;;;7.34;100.00;100268.38;5021815;28;20033;-87
2022/10/26 19:27:00;;;;;;;;;;;;;;;7.38;100.00;100263.88;5022314;28;20261;-89
2022/10/26 19:29:27;;;;;;;;;;;;;;;7.40;100.00;100270.88;5021899;28;20288;-88
2022/10/26 19:32:16;;;;;;;;;;;;;;;7.38;100.00;100264.75;5021970;28;20039;-88
2022/10/26 19:34:40;;;;;;;;;;;;;;;7.35;100.00;100271.84;5020579;28;19925;-88
2022/10/26 19:37:08;;;;;;;;;;;;;;;7.37;100.00;100267.41;5020612;28;19917;-89
2022/10/26 19:39:33;;;;;;;;;;;;;;;7.36;100.00;100269.19;5022126;28;19928;-89